Time;durP1;ratioP1;P1;durP2;ratioP2;P2;SDS_P1;SDS_P2;PMS_P1;PMS_P2;Temp;Humidity;BMP_temperature;BMP_pressure;BME280_temperature;BME280_humidity;BME280_pressure;Samples;Min_cycle;Max_cycle;Signal;HPM_P1;HPM_P2
2023/05/28 00:02:33;;;;;;;2.72;1.70;;;10.60;99.90;;;;;;5028344;28;20049;-77
2023/05/28 00:05:00;;;;;;;2.70;1.70;;;10.50;99.90;;;;;;5040729;28;20131;-77
2023/05/28 00:07:33;;;;;;;4.07;2.45;;;10.40;99.90;;;;;;5039448;28;20045;-77
2023/05/28 00:10:00;;;;;;;2.47;1.40;;;10.40;99.90;;;;;;5039231;28;20056;-77
2023/05/28 00:12:27;;;;;;;2.88;1.90;;;10.30;99.90;;;;;;5040911;28;20610;-77
2023/05/28 00:14:53;;;;;;;3.40;1.92;;;10.30;99.90;;;;;;5060626;28;20059;-77
2023/05/28 00:17:21;;;;;;;2.78;1.70;;;10.40;99.90;;;;;;5041919;28;20136;-77
2023/05/28 00:19:48;;;;;;;1.90;1.40;;;10.30;99.90;;;;;;5057314;28;20080;-77
2023/05/28 00:22:15;;;;;;;2.88;1.77;;;10.30;99.90;;;;;;5058814;28;20118;-77
2023/05/28 00:24:42;;;;;;;3.15;2.10;;;10.40;99.90;;;;;;5042191;28;20488;-77
2023/05/28 00:27:09;;;;;;;3.65;2.05;;;10.30;99.90;;;;;;5038371;28;20053;-77
2023/05/28 00:29:36;;;;;;;2.63;1.60;;;10.30;99.90;;;;;;5048154;28;20513;-77
2023/05/28 00:32:03;;;;;;;3.55;1.50;;;10.20;99.90;;;;;;5042107;28;20053;-76
2023/05/28 00:34:30;;;;;;;4.68;1.98;;;10.20;99.90;;;;;;5057160;28;20724;-79
2023/05/28 00:36:57;;;;;;;3.00;1.95;;;10.20;99.90;;;;;;5038220;28;20444;-79
2023/05/28 00:39:24;;;;;;;2.72;1.88;;;10.10;99.90;;;;;;5039123;28;20061;-77
2023/05/28 00:42:01;;;;;;;2.65;1.60;;;10.10;99.90;;;;;;5022344;28;20447;-77
2023/05/28 00:44:29;;;;;;;3.92;1.73;;;10.10;99.90;;;;;;5058168;28;20388;-77
2023/05/28 00:46:56;;;;;;;2.63;1.77;;;10.10;99.90;;;;;;5037854;28;20546;-79
2023/05/28 00:49:23;;;;;;;2.35;1.65;;;10.00;99.90;;;;;;5038192;28;20615;-77
2023/05/28 00:51:49;;;;;;;4.35;1.98;;;9.90;99.90;;;;;;5038419;28;20163;-77
2023/05/28 00:54:16;;;;;;;3.08;1.83;;;9.90;99.90;;;;;;5054996;28;20125;-77
2023/05/28 00:56:46;;;;;;;4.47;1.90;;;9.80;99.90;;;;;;5022132;28;20122;-77
2023/05/28 00:59:13;;;;;;;2.92;1.95;;;9.80;99.90;;;;;;5039793;28;20059;-77
2023/05/28 01:01:39;;;;;;;2.45;1.58;;;9.70;99.90;;;;;;5040152;28;20198;-77
2023/05/28 01:04:06;;;;;;;2.92;2.13;;;9.70;99.90;;;;;;5015950;28;20053;-77
2023/05/28 01:06:37;;;;;;;3.00;2.03;;;9.70;99.90;;;;;;5056913;28;20056;-77
2023/05/28 01:09:05;;;;;;;2.85;1.77;;;9.70;99.90;;;;;;5062219;28;20044;-77
2023/05/28 01:11:32;;;;;;;2.35;1.75;;;9.60;99.90;;;;;;5062647;28;20055;-78
2023/05/28 01:13:59;;;;;;;3.28;1.98;;;9.60;99.90;;;;;;5045067;28;20048;-77
2023/05/28 01:16:27;;;;;;;2.15;1.67;;;9.60;99.90;;;;;;5062412;28;20083;-78
2023/05/28 01:18:55;;;;;;;3.20;1.85;;;9.50;99.90;;;;;;5044612;28;20444;-77
2023/05/28 01:21:23;;;;;;;3.53;1.95;;;9.60;99.90;;;;;;5029609;28;20109;-76
2023/05/28 01:23:50;;;;;;;2.30;1.70;;;9.50;99.90;;;;;;5045345;28;20086;-77
2023/05/28 01:26:17;;;;;;;2.13;1.63;;;9.50;99.90;;;;;;5025681;28;20056;-79
2023/05/28 01:28:48;;;;;;;3.53;2.00;;;9.40;99.90;;;;;;5042069;28;20055;-78
2023/05/28 01:31:15;;;;;;;2.55;1.70;;;9.30;99.90;;;;;;5044206;28;20048;-78
2023/05/28 01:33:43;;;;;;;2.70;1.75;;;9.30;99.90;;;;;;5027506;28;20133;-77
2023/05/28 01:36:19;;;;;;;3.13;1.95;;;9.30;99.90;;;;;;5029247;28;20148;-77
2023/05/28 01:38:50;;;;;;;3.95;2.08;;;9.20;99.90;;;;;;5029638;28;20053;-78
2023/05/28 01:41:17;;;;;;;3.20;2.03;;;9.10;99.90;;;;;;5013310;28;20053;-77
2023/05/28 01:43:45;;;;;;;3.72;2.00;;;9.00;99.90;;;;;;5039131;28;20455;-77
2023/05/28 01:46:12;;;;;;;4.05;2.17;;;9.10;99.90;;;;;;5045779;28;20075;-77
2023/05/28 01:48:39;;;;;;;3.45;2.50;;;9.10;99.90;;;;;;5027777;28;20540;-78
2023/05/28 01:51:06;;;;;;;3.20;1.80;;;9.10;99.90;;;;;;5011894;28;20114;-77
2023/05/28 01:53:33;;;;;;;3.13;2.10;;;9.10;99.90;;;;;;5021093;28;20057;-77
2023/05/28 01:56:01;;;;;;;3.40;2.03;;;9.10;99.90;;;;;;5013002;28;20471;-77
2023/05/28 01:58:28;;;;;;;2.95;2.17;;;9.00;99.90;;;;;;5045327;28;20083;-77
2023/05/28 02:01:10;;;;;;;2.90;1.80;;;9.00;99.90;;;;;;5012715;28;20068;-77
2023/05/28 02:03:37;;;;;;;3.28;2.08;;;8.90;99.90;;;;;;5051478;28;20114;-77
2023/05/28 02:06:05;;;;;;;3.05;1.90;;;8.90;99.90;;;;;;5012235;28;20053;-78
2023/05/28 02:08:33;;;;;;;3.58;1.92;;;8.90;99.90;;;;;;5029122;28;20052;-78
2023/05/28 02:11:00;;;;;;;3.35;1.55;;;8.90;99.90;;;;;;5012812;28;20558;-77
2023/05/28 02:13:27;;;;;;;2.78;1.60;;;8.80;99.90;;;;;;5052849;28;20045;-78
2023/05/28 02:15:57;;;;;;;2.97;1.83;;;8.80;99.90;;;;;;5045431;28;20126;-77
2023/05/28 02:18:24;;;;;;;2.83;1.75;;;8.80;99.90;;;;;;5011507;28;20071;-76
2023/05/28 02:20:51;;;;;;;4.18;1.92;;;8.80;99.90;;;;;;5028636;28;20099;-77
2023/05/28 02:23:18;;;;;;;3.40;2.25;;;8.70;99.90;;;;;;5034393;28;20053;-77
2023/05/28 02:25:45;;;;;;;5.20;2.05;;;8.70;99.90;;;;;;5012753;28;20485;-77
2023/05/28 02:28:12;;;;;;;3.17;2.05;;;8.70;99.90;;;;;;5044281;28;20404;-77
2023/05/28 02:30:39;;;;;;;2.78;1.83;;;8.60;99.90;;;;;;5044300;28;20408;-77
2023/05/28 02:33:06;;;;;;;2.42;1.75;;;8.60;99.90;;;;;;5050970;28;20110;-77
2023/05/28 02:35:33;;;;;;;2.08;1.38;;;8.60;99.90;;;;;;5047894;28;20147;-77
2023/05/28 02:38:00;;;;;;;2.13;1.63;;;8.60;99.90;;;;;;5031687;28;20045;-76
2023/05/28 02:40:26;;;;;;;2.38;1.48;;;8.60;99.90;;;;;;5065915;28;20048;-78
2023/05/28 02:42:53;;;;;;;2.40;1.55;;;8.60;99.90;;;;;;5047537;28;20402;-77
2023/05/28 02:45:20;;;;;;;3.92;2.10;;;8.50;99.90;;;;;;5048471;28;20048;-77
2023/05/28 02:47:47;;;;;;;4.30;1.88;;;8.50;99.90;;;;;;5046019;28;20048;-77
2023/05/28 02:50:14;;;;;;;3.17;1.90;;;8.50;99.90;;;;;;5063366;28;20048;-77
2023/05/28 02:52:41;;;;;;;1.92;1.38;;;8.40;99.90;;;;;;5065274;28;20064;-77
2023/05/28 02:55:08;;;;;;;3.60;1.90;;;8.40;99.90;;;;;;5064255;28;20087;-77
2023/05/28 02:57:35;;;;;;;3.10;1.63;;;8.30;99.90;;;;;;5057485;28;20048;-77
2023/05/28 03:00:02;;;;;;;2.10;1.55;;;8.30;99.90;;;;;;5044010;28;20392;-77
2023/05/28 03:02:29;;;;;;;2.92;1.80;;;8.30;99.90;;;;;;5028024;28;20059;-77
2023/05/28 03:04:56;;;;;;;2.78;1.55;;;8.30;99.90;;;;;;5025757;28;20083;-78
2023/05/28 03:07:23;;;;;;;2.33;2.00;;;8.30;99.90;;;;;;5011601;28;20064;-77
2023/05/28 03:09:50;;;;;;;2.80;1.65;;;8.20;99.90;;;;;;5043659;28;20057;-77
2023/05/28 03:12:17;;;;;;;1.80;1.40;;;8.20;99.90;;;;;;5027811;28;20372;-76
2023/05/28 03:14:44;;;;;;;2.70;1.73;;;8.10;99.90;;;;;;5063663;28;20131;-77
2023/05/28 03:17:11;;;;;;;2.47;1.75;;;8.10;99.90;;;;;;5032369;28;20111;-77
2023/05/28 03:19:38;;;;;;;3.03;1.77;;;8.10;99.90;;;;;;5042541;28;20128;-77
2023/05/28 03:22:05;;;;;;;2.75;1.73;;;8.10;99.90;;;;;;5045324;28;20071;-76
2023/05/28 03:24:31;;;;;;;2.10;1.45;;;8.00;99.90;;;;;;5061550;28;20059;-77
2023/05/28 03:26:59;;;;;;;3.25;1.77;;;7.90;99.90;;;;;;5062433;28;20048;-76
2023/05/28 03:29:26;;;;;;;3.13;1.85;;;7.80;99.90;;;;;;5047013;28;20072;-77
2023/05/28 03:31:53;;;;;;;2.58;1.70;;;7.80;99.90;;;;;;5030149;28;20053;-77
2023/05/28 03:34:21;;;;;;;3.13;1.85;;;7.80;99.90;;;;;;5045318;28;20493;-77
2023/05/28 03:36:47;;;;;;;3.33;2.00;;;7.80;99.90;;;;;;5063316;28;20078;-77
2023/05/28 03:39:14;;;;;;;3.20;1.80;;;7.80;99.90;;;;;;5046769;28;20054;-77
2023/05/28 03:41:43;;;;;;;2.40;1.70;;;7.80;99.90;;;;;;5047103;28;20049;-77
2023/05/28 03:44:10;;;;;;;2.38;1.70;;;7.80;99.90;;;;;;5062642;28;20067;-77
2023/05/28 03:46:37;;;;;;;2.90;1.70;;;7.80;99.90;;;;;;5047468;28;20044;-77
2023/05/28 03:49:04;;;;;;;2.10;1.52;;;7.70;99.90;;;;;;5044491;28;20052;-76
2023/05/28 03:51:31;;;;;;;2.70;1.45;;;7.70;99.90;;;;;;5062870;28;20056;-76
2023/05/28 03:53:58;;;;;;;2.83;1.70;;;7.60;99.90;;;;;;5040760;28;20136;-77
2023/05/28 03:56:25;;;;;;;2.67;1.80;;;7.60;99.90;;;;;;5064055;28;20216;-77
2023/05/28 03:58:53;;;;;;;1.98;1.38;;;7.70;99.90;;;;;;5046756;28;20048;-76
2023/05/28 04:01:20;;;;;;;2.20;1.67;;;7.70;99.90;;;;;;5046695;28;20407;-77
2023/05/28 04:03:47;;;;;;;2.20;1.60;;;7.70;99.90;;;;;;5061098;28;20053;-77
2023/05/28 04:06:14;;;;;;;2.45;1.42;;;7.70;99.90;;;;;;5063472;28;20404;-76
2023/05/28 04:08:41;;;;;;;2.97;1.48;;;7.70;99.90;;;;;;5045321;28;20056;-77
2023/05/28 04:11:08;;;;;;;2.40;1.80;;;7.70;99.90;;;;;;5046931;28;20132;-77
2023/05/28 04:13:34;;;;;;;4.25;2.50;;;7.70;99.90;;;;;;5045990;28;20052;-77
2023/05/28 04:16:02;;;;;;;2.53;1.83;;;7.70;99.90;;;;;;5064429;28;20466;-77
2023/05/28 04:18:29;;;;;;;2.20;1.63;;;7.70;99.90;;;;;;5061632;28;20071;-79
2023/05/28 04:20:56;;;;;;;2.20;1.77;;;7.60;99.90;;;;;;5029287;28;20106;-78
2023/05/28 04:23:23;;;;;;;3.17;1.65;;;7.60;99.90;;;;;;5045836;28;20055;-78
2023/05/28 04:25:50;;;;;;;4.07;1.65;;;7.60;99.90;;;;;;5039336;28;20433;-78
2023/05/28 04:28:17;;;;;;;2.75;1.55;;;7.60;99.90;;;;;;5042697;28;20163;-78
2023/05/28 04:30:44;;;;;;;2.90;1.60;;;7.60;99.90;;;;;;5043934;28;20053;-76
2023/05/28 04:33:11;;;;;;;1.95;1.50;;;7.60;99.90;;;;;;5015123;28;20558;-77
2023/05/28 04:35:37;;;;;;;2.25;1.63;;;7.60;99.90;;;;;;5042460;28;20107;-78
2023/05/28 04:38:04;;;;;;;1.83;1.48;;;7.70;99.90;;;;;;5038034;28;20114;-77
2023/05/28 04:40:32;;;;;;;2.53;1.58;;;7.70;99.90;;;;;;5023582;28;20079;-78
2023/05/28 04:42:59;;;;;;;2.70;1.65;;;7.70;99.90;;;;;;5048325;28;20055;-77
2023/05/28 04:45:26;;;;;;;2.60;1.52;;;7.70;99.90;;;;;;5046483;28;20392;-77
2023/05/28 04:47:53;;;;;;;2.83;1.83;;;7.70;99.90;;;;;;5047082;28;20099;-78
2023/05/28 04:50:21;;;;;;;3.25;1.63;;;7.80;99.90;;;;;;5018550;28;20060;-78
2023/05/28 04:52:48;;;;;;;2.42;1.80;;;7.80;99.90;;;;;;5037628;28;20059;-77
2023/05/28 04:55:16;;;;;;;2.97;1.70;;;7.80;99.90;;;;;;5026719;28;20049;-78
2023/05/28 04:57:43;;;;;;;2.42;1.80;;;7.80;99.90;;;;;;5043051;28;20091;-78
2023/05/28 05:00:13;;;;;;;3.10;2.30;;;7.90;99.90;;;;;;5042584;28;20493;-77
2023/05/28 05:02:43;;;;;;;2.22;1.85;;;8.00;99.90;;;;;;5046792;28;20051;-76
2023/05/28 05:05:10;;;;;;;3.85;1.98;;;8.10;99.90;;;;;;5028732;28;20055;-77
2023/05/28 05:07:37;;;;;;;2.35;1.83;;;8.30;99.90;;;;;;5032665;28;20072;-77
2023/05/28 05:10:08;;;;;;;2.83;1.63;;;8.40;99.90;;;;;;5041757;28;20416;-77
2023/05/28 05:12:36;;;;;;;2.38;1.60;;;8.50;99.90;;;;;;5027476;28;20134;-77
2023/05/28 05:15:04;;;;;;;2.13;1.58;;;8.70;99.90;;;;;;5062158;28;20106;-77
2023/05/28 05:17:31;;;;;;;2.47;1.80;;;8.80;99.90;;;;;;5059936;28;20049;-77
2023/05/28 05:20:00;;;;;;;2.10;1.55;;;9.00;99.90;;;;;;5022207;28;20133;-77
2023/05/28 05:22:27;;;;;;;2.90;2.15;;;9.20;99.90;;;;;;5047978;28;20049;-78
2023/05/28 05:24:54;;;;;;;3.47;1.88;;;9.30;99.90;;;;;;5055863;28;20083;-77
2023/05/28 05:27:21;;;;;;;2.72;2.05;;;9.40;99.90;;;;;;5039925;28;20118;-78
2023/05/28 05:29:47;;;;;;;2.72;1.80;;;9.40;99.90;;;;;;5005378;28;20499;-77
2023/05/28 05:32:14;;;;;;;3.83;2.10;;;9.50;99.90;;;;;;5041125;28;20134;-77
2023/05/28 05:34:41;;;;;;;2.90;2.00;;;9.50;99.90;;;;;;5048639;28;20053;-77
2023/05/28 05:37:08;;;;;;;2.63;2.05;;;9.60;99.90;;;;;;5021418;28;20648;-76
2023/05/28 05:39:35;;;;;;;2.88;2.20;;;9.70;99.90;;;;;;5039532;28;20064;-76
2023/05/28 05:42:01;;;;;;;4.60;2.20;;;9.80;99.90;;;;;;5023233;28;20053;-76
2023/05/28 05:44:28;;;;;;;2.40;1.80;;;9.90;99.90;;;;;;5058622;28;20049;-79
2023/05/28 05:46:55;;;;;;;3.67;1.65;;;9.90;99.90;;;;;;5056473;28;20132;-76
2023/05/28 05:49:22;;;;;;;2.60;2.10;;;9.90;99.90;;;;;;5054302;28;20429;-75
2023/05/28 05:51:49;;;;;;;3.05;1.98;;;10.00;99.90;;;;;;5059892;28;20091;-77
2023/05/28 05:54:16;;;;;;;3.25;2.28;;;10.10;99.90;;;;;;5058886;28;20567;-76
2023/05/28 05:56:43;;;;;;;3.25;1.90;;;10.20;99.90;;;;;;5020290;28;20049;-77
2023/05/28 05:59:10;;;;;;;3.72;2.78;;;10.20;99.90;;;;;;5044732;28;20040;-76
2023/05/28 06:01:37;;;;;;;2.47;1.85;;;10.20;99.90;;;;;;5010064;28;20134;-77
2023/05/28 06:04:04;;;;;;;2.97;1.98;;;10.30;99.90;;;;;;5035601;28;20103;-76
2023/05/28 06:06:30;;;;;;;3.15;2.30;;;10.30;99.90;;;;;;5043244;28;20068;-77
2023/05/28 06:08:57;;;;;;;2.88;1.90;;;10.40;99.90;;;;;;5030414;28;20041;-77
2023/05/28 06:11:25;;;;;;;3.05;1.88;;;10.50;99.90;;;;;;5036943;28;20407;-76
2023/05/28 06:13:52;;;;;;;2.60;2.00;;;10.60;99.90;;;;;;5052692;28;20060;-77
2023/05/28 06:16:19;;;;;;;3.47;2.17;;;10.60;99.90;;;;;;5017084;28;20094;-77
2023/05/28 06:18:47;;;;;;;3.40;2.00;;;10.70;99.90;;;;;;5028351;28;20096;-77
2023/05/28 06:21:14;;;;;;;4.15;2.42;;;10.80;99.90;;;;;;5027658;28;20070;-77
2023/05/28 06:23:41;;;;;;;3.95;2.47;;;10.80;99.90;;;;;;5023419;28;20118;-77
2023/05/28 06:26:08;;;;;;;4.93;2.70;;;10.90;99.90;;;;;;5016132;28;20056;-77
2023/05/28 06:28:35;;;;;;;4.07;2.58;;;10.90;99.90;;;;;;5023965;28;20064;-77
2023/05/28 06:31:02;;;;;;;3.83;2.60;;;11.00;99.90;;;;;;5014643;28;20037;-76
2023/05/28 06:33:30;;;;;;;5.10;3.25;;;11.00;99.90;;;;;;5013024;28;20044;-76
2023/05/28 06:35:57;;;;;;;4.65;2.88;;;11.10;99.90;;;;;;5028937;28;20053;-76
2023/05/28 06:38:24;;;;;;;3.63;2.58;;;11.20;99.90;;;;;;5038271;28;20671;-76
2023/05/28 06:40:51;;;;;;;3.65;2.78;;;11.30;99.90;;;;;;5040671;28;20936;-77
2023/05/28 06:43:18;;;;;;;2.92;1.98;;;11.40;99.90;;;;;;5039213;28;20079;-76
2023/05/28 06:45:45;;;;;;;4.05;2.33;;;11.50;99.90;;;;;;5041452;28;20130;-76
2023/05/28 06:48:12;;;;;;;4.25;2.28;;;11.50;99.90;;;;;;5042172;28;20075;-79
2023/05/28 06:50:39;;;;;;;3.25;2.20;;;11.60;99.90;;;;;;5055400;28;20130;-76
2023/05/28 06:53:07;;;;;;;3.25;2.20;;;11.70;99.90;;;;;;5036598;28;20684;-76
2023/05/28 06:55:34;;;;;;;3.63;2.05;;;11.70;99.90;;;;;;5049438;28;20114;-77
2023/05/28 06:58:02;;;;;;;4.60;2.60;;;11.80;99.90;;;;;;5043657;28;20053;-79
2023/05/28 07:00:29;;;;;;;3.33;2.28;;;11.90;99.90;;;;;;5044824;28;20538;-76
2023/05/28 07:02:56;;;;;;;3.30;2.05;;;12.00;99.90;;;;;;5046868;28;20052;-76
2023/05/28 07:05:24;;;;;;;4.35;2.88;;;12.10;99.90;;;;;;5043481;28;20048;-79
2023/05/28 07:07:51;;;;;;;4.78;2.80;;;12.20;99.90;;;;;;5041248;28;20239;-79
2023/05/28 07:10:18;;;;;;;3.63;2.28;;;12.30;99.90;;;;;;5043433;28;20141;-77
2023/05/28 07:12:45;;;;;;;4.05;2.50;;;12.40;99.90;;;;;;5058548;28;20136;-79
2023/05/28 07:15:12;;;;;;;4.18;2.72;;;12.40;99.90;;;;;;5063589;28;20056;-78
2023/05/28 07:17:39;;;;;;;4.40;2.65;;;12.50;99.90;;;;;;5045755;28;20076;-76
2023/05/28 07:20:06;;;;;;;5.00;2.72;;;12.50;99.90;;;;;;5062551;28;20049;-76
2023/05/28 07:22:34;;;;;;;3.50;2.10;;;12.60;99.90;;;;;;5048951;28;20095;-76
2023/05/28 07:25:02;;;;;;;3.65;2.38;;;12.70;99.90;;;;;;5059306;28;20049;-77
2023/05/28 07:27:28;;;;;;;6.68;2.63;;;12.80;99.90;;;;;;5058376;28;20058;-76
2023/05/28 07:29:56;;;;;;;3.30;1.92;;;12.90;99.90;;;;;;5044681;28;20056;-78
2023/05/28 07:32:24;;;;;;;2.85;1.77;;;13.10;99.90;;;;;;5041290;28;20049;-77
2023/05/28 07:34:51;;;;;;;3.22;2.35;;;13.20;99.90;;;;;;5021343;28;20143;-77
2023/05/28 07:37:18;;;;;;;3.42;1.88;;;13.30;99.90;;;;;;5042262;28;20055;-77
2023/05/28 07:39:45;;;;;;;2.35;1.42;;;13.40;99.90;;;;;;5038612;28;20052;-79
2023/05/28 07:42:13;;;;;;;3.88;2.22;;;13.40;99.90;;;;;;5046599;28;20454;-77
2023/05/28 07:44:40;;;;;;;2.67;1.80;;;13.50;99.90;;;;;;5044660;28;20044;-77
2023/05/28 07:47:07;;;;;;;2.92;1.90;;;13.50;99.90;;;;;;5062122;28;20052;-78
2023/05/28 07:49:34;;;;;;;2.40;1.45;;;13.60;99.90;;;;;;5026990;28;20383;-78
2023/05/28 07:52:01;;;;;;;1.92;1.30;;;13.70;99.90;;;;;;5021406;28;20052;-77
2023/05/28 07:54:29;;;;;;;3.17;1.80;;;13.80;99.90;;;;;;5017235;28;20056;-78
2023/05/28 07:56:56;;;;;;;2.50;1.65;;;13.80;99.90;;;;;;5041530;28;20466;-78
2023/05/28 07:59:23;;;;;;;2.70;1.70;;;13.80;99.90;;;;;;5025116;28;20134;-77
2023/05/28 08:01:51;;;;;;;3.95;1.75;;;13.90;99.90;;;;;;5053087;28;20048;-77
2023/05/28 08:04:18;;;;;;;2.17;1.38;;;13.90;99.90;;;;;;5050930;28;20049;-78
2023/05/28 08:06:45;;;;;;;2.30;1.50;;;14.00;99.90;;;;;;5016207;28;20080;-78
2023/05/28 08:09:15;;;;;;;1.77;1.38;;;14.10;99.90;;;;;;5026292;28;20052;-78
2023/05/28 08:11:42;;;;;;;2.22;1.58;;;14.20;99.90;;;;;;5060150;28;20447;-78
2023/05/28 08:14:08;;;;;;;2.60;1.58;;;14.30;99.90;;;;;;5060745;28;20450;-77
2023/05/28 08:16:36;;;;;;;3.30;1.80;;;14.30;99.90;;;;;;5024811;28;20562;-78
2023/05/28 08:19:03;;;;;;;3.35;2.35;;;14.40;99.90;;;;;;5039649;28;20164;-78
2023/05/28 08:21:30;;;;;;;2.13;1.60;;;14.50;99.90;;;;;;5042061;28;20373;-78
2023/05/28 08:23:58;;;;;;;3.33;1.83;;;14.50;99.90;;;;;;5034026;28;20399;-78
2023/05/28 08:26:25;;;;;;;2.33;1.60;;;14.60;99.40;;;;;;5049939;28;20059;-78
2023/05/28 08:28:53;;;;;;;2.20;1.35;;;14.70;99.20;;;;;;5036295;28;20048;-78
2023/05/28 08:31:20;;;;;;;3.20;1.45;;;14.70;99.90;;;;;;5042335;28;20476;-78
2023/05/28 08:33:47;;;;;;;1.33;1.13;;;14.80;99.10;;;;;;5050000;28;20127;-78
2023/05/28 08:36:14;;;;;;;2.03;1.50;;;14.90;98.70;;;;;;5044664;28;20056;-78
2023/05/28 08:38:41;;;;;;;1.92;1.40;;;15.00;97.50;;;;;;5028210;28;20049;-78
2023/05/28 08:41:08;;;;;;;1.88;1.40;;;15.00;97.80;;;;;;5035085;28;20072;-78
2023/05/28 08:43:35;;;;;;;2.35;1.40;;;15.10;98.00;;;;;;5034633;28;20393;-79
2023/05/28 08:46:02;;;;;;;3.17;1.40;;;15.20;97.30;;;;;;5042365;28;20052;-79
2023/05/28 08:48:28;;;;;;;2.40;1.40;;;15.20;97.00;;;;;;5052197;28;20128;-78
2023/05/28 08:50:56;;;;;;;2.60;1.58;;;15.30;97.30;;;;;;5010815;28;20129;-80
2023/05/28 08:53:25;;;;;;;2.25;1.30;;;15.30;95.40;;;;;;5039005;28;20140;-80
2023/05/28 08:55:55;;;;;;;2.50;1.30;;;15.50;96.00;;;;;;5010440;28;20075;-80
2023/05/28 08:58:22;;;;;;;1.65;1.13;;;15.60;94.70;;;;;;5012249;28;20586;-80
2023/05/28 09:00:49;;;;;;;1.40;1.17;;;15.60;94.70;;;;;;5021168;28;20048;-81
2023/05/28 09:03:16;;;;;;;2.40;1.30;;;15.70;94.00;;;;;;5038723;28;20456;-81
2023/05/28 09:05:43;;;;;;;1.92;1.33;;;15.80;93.80;;;;;;5039102;28;20055;-81
2023/05/28 09:08:10;;;;;;;1.85;1.23;;;15.90;93.70;;;;;;5024534;28;20132;-81
2023/05/28 09:10:37;;;;;;;2.53;1.45;;;16.00;91.60;;;;;;5019334;28;20056;-82
2023/05/28 09:13:04;;;;;;;1.85;1.23;;;16.10;92.10;;;;;;5025880;28;20059;-81
2023/05/28 09:15:31;;;;;;;1.30;0.98;;;16.10;90.90;;;;;;5040447;28;20102;-81
2023/05/28 09:17:59;;;;;;;1.67;1.05;;;16.20;91.60;;;;;;5045318;28;20048;-81
2023/05/28 09:20:26;;;;;;;1.70;1.20;;;16.30;90.90;;;;;;5024693;28;20611;-81
2023/05/28 09:23:04;;;;;;;1.95;1.25;;;16.40;90.40;;;;;;5027177;28;20045;-82
2023/05/28 09:25:34;;;;;;;1.40;1.00;;;16.50;89.60;;;;;;5038971;28;21716;-82
2023/05/28 09:28:02;;;;;;;1.88;1.10;;;16.70;89.20;;;;;;5023001;28;20064;-81
2023/05/28 09:30:29;;;;;;;1.30;1.10;;;16.90;87.60;;;;;;5016511;28;20144;-81
2023/05/28 09:33:00;;;;;;;2.35;1.70;;;17.00;83.80;;;;;;5019907;28;20110;-79
2023/05/28 09:35:27;;;;;;;2.15;1.45;;;17.00;85.90;;;;;;5027529;28;20049;-79
2023/05/28 09:38:32;;;;;;;1.98;1.42;;;17.10;83.90;;;;;;5033163;28;20049;-79
2023/05/28 09:41:01;;;;;;;1.42;0.93;;;17.20;85.30;;;;;;5032775;28;20053;-79
2023/05/28 09:43:29;;;;;;;1.75;1.13;;;17.30;83.50;;;;;;5025986;28;20091;-80
2023/05/28 09:46:07;;;;;;;1.77;1.30;;;17.50;84.40;;;;;;5027108;28;20058;-78
2023/05/28 09:48:34;;;;;;;3.50;2.00;;;17.70;83.60;;;;;;5026175;28;20041;-79
2023/05/28 09:51:05;;;;;;;2.75;1.92;;;17.80;80.80;;;;;;5028689;28;20065;-79
2023/05/28 09:53:36;;;;;;;2.78;1.95;;;17.80;81.40;;;;;;5032015;28;20384;-79
2023/05/28 09:56:03;;;;;;;2.40;1.80;;;17.80;80.00;;;;;;5045416;28;20052;-78
2023/05/28 09:58:34;;;;;;;3.30;1.90;;;17.90;80.00;;;;;;5044857;28;20045;-79
2023/05/28 10:01:03;;;;;;;2.80;1.80;;;18.00;79.00;;;;;;5049061;28;20053;-79
2023/05/28 10:03:47;;;;;;;2.65;1.85;;;18.20;79.80;;;;;;5046499;28;20052;-79
2023/05/28 10:06:18;;;;;;;2.25;1.95;;;18.40;80.10;;;;;;5031851;28;20084;-80
2023/05/28 10:08:50;;;;;;;3.85;2.10;;;18.50;79.30;;;;;;5035090;28;20080;-78
2023/05/28 10:11:21;;;;;;;2.45;2.03;;;18.60;78.30;;;;;;5012899;28;20076;-78
2023/05/28 10:13:48;;;;;;;2.50;1.85;;;18.70;79.00;;;;;;5034887;28;20482;-78
2023/05/28 10:16:15;;;;;;;3.10;2.20;;;18.80;77.40;;;;;;5024907;28;20053;-79
2023/05/28 10:18:42;;;;;;;3.30;2.83;;;19.00;77.10;;;;;;5025917;28;20067;-78
2023/05/28 10:21:09;;;;;;;3.65;2.60;;;19.10;75.40;;;;;;5043415;28;20056;-79
2023/05/28 10:23:36;;;;;;;3.15;2.58;;;19.20;77.40;;;;;;5030544;28;20068;-79
2023/05/28 10:26:02;;;;;;;3.47;2.75;;;19.40;77.10;;;;;;5046099;28;20113;-79
2023/05/28 10:28:30;;;;;;;4.13;3.17;;;19.40;74.30;;;;;;5044998;28;20041;-79
2023/05/28 10:31:06;;;;;;;3.88;2.95;;;19.40;74.60;;;;;;5042540;28;20044;-78
2023/05/28 10:33:39;;;;;;;4.20;3.80;;;19.60;73.50;;;;;;5039480;28;20057;-79
2023/05/28 10:36:11;;;;;;;3.80;3.00;;;19.80;74.40;;;;;;5026759;28;21194;-78
2023/05/28 10:38:45;;;;;;;4.15;3.22;;;19.90;72.70;;;;;;5040629;28;20538;-80
2023/05/28 10:41:38;;;;;;;4.90;3.92;;;20.10;75.60;;;;;;5037540;28;20044;-79
2023/05/28 10:44:06;;;;;;;4.35;3.95;;;20.10;73.80;;;;;;5040142;28;20532;-79
2023/05/28 10:46:37;;;;;;;4.68;4.00;;;20.30;73.40;;;;;;5041567;28;20044;-79
2023/05/28 10:49:20;;;;;;;6.18;5.25;;;20.30;74.10;;;;;;5026788;28;20159;-79
2023/05/28 10:52:01;;;;;;;5.43;4.38;;;20.30;73.90;;;;;;5043558;28;20088;-79
2023/05/28 10:54:37;;;;;;;5.05;4.55;;;20.30;73.20;;;;;;5056253;28;20053;-80
2023/05/28 10:57:18;;;;;;;5.28;4.22;;;20.40;73.00;;;;;;5062571;28;20113;-79
2023/05/28 10:59:59;;;;;;;4.93;4.32;;;20.60;73.70;;;;;;5064120;28;20060;-81
2023/05/28 11:02:27;;;;;;;4.97;4.47;;;20.90;73.70;;;;;;5036336;28;20124;-81
2023/05/28 11:04:55;;;;;;;4.43;3.92;;;20.90;72.90;;;;;;5020673;28;20045;-80
2023/05/28 11:07:23;;;;;;;4.82;4.22;;;21.10;72.80;;;;;;5042691;28;20048;-80
2023/05/28 11:09:51;;;;;;;4.70;4.18;;;21.20;73.40;;;;;;5035804;28;20126;-80
2023/05/28 11:12:21;;;;;;;4.75;4.20;;;21.30;74.00;;;;;;5030871;28;20118;-81
2023/05/28 11:14:48;;;;;;;4.50;4.05;;;21.40;74.20;;;;;;5034404;28;20098;-80
2023/05/28 11:17:15;;;;;;;5.20;4.70;;;21.70;72.40;;;;;;5014986;28;20045;-80
2023/05/28 11:19:46;;;;;;;6.18;5.57;;;21.90;73.90;;;;;;5033078;28;20053;-80
2023/05/28 11:22:14;;;;;;;8.35;6.35;;;22.10;72.90;;;;;;5037619;28;20090;-80
2023/05/28 11:25:04;;;;;;;7.00;6.07;;;22.10;70.30;;;;;;5031305;28;20064;-80
2023/05/28 11:27:33;;;;;;;6.57;5.97;;;22.20;70.00;;;;;;5059219;28;20094;-80
2023/05/28 11:30:00;;;;;;;8.20;6.63;;;22.20;70.00;;;;;;5042608;28;20048;-80
2023/05/28 11:32:32;;;;;;;6.55;5.95;;;22.10;69.40;;;;;;5043798;28;20056;-79
2023/05/28 11:34:59;;;;;;;7.20;6.50;;;22.20;70.50;;;;;;5073465;28;20049;-79
2023/05/28 11:37:32;;;;;;;6.78;5.95;;;22.30;72.80;;;;;;5026036;28;20085;-80
2023/05/28 11:40:00;;;;;;;6.30;5.60;;;22.50;71.30;;;;;;5042000;28;20049;-79
2023/05/28 11:42:27;;;;;;;6.88;6.00;;;22.80;69.70;;;;;;5043396;28;20068;-79
2023/05/28 11:44:54;;;;;;;7.05;6.35;;;22.60;68.70;;;;;;5057142;28;20110;-79
2023/05/28 11:47:21;;;;;;;6.13;5.53;;;22.60;68.70;;;;;;5044395;28;20068;-80
2023/05/28 11:49:48;;;;;;;6.00;5.03;;;22.80;68.40;;;;;;5038929;28;20071;-80
2023/05/28 11:52:16;;;;;;;6.75;5.90;;;23.10;68.00;;;;;;5029380;28;20060;-79
2023/05/28 11:54:45;;;;;;;7.18;6.10;;;23.20;68.80;;;;;;5041878;28;20119;-79
2023/05/28 11:57:22;;;;;;;6.28;5.68;;;23.30;68.40;;;;;;5025697;28;20045;-78
2023/05/28 12:00:11;;;;;;;6.85;6.15;;;23.60;67.20;;;;;;5046269;28;20056;-79
2023/05/28 12:02:49;;;;;;;6.32;5.72;;;23.70;66.40;;;;;;5061290;28;20101;-78
2023/05/28 12:05:17;;;;;;;6.35;5.75;;;23.60;64.50;;;;;;5062118;28;20741;-79
2023/05/28 12:07:48;;;;;;;5.72;5.22;;;23.80;64.90;;;;;;5048874;28;20052;-79
2023/05/28 12:10:16;;;;;;;7.00;5.47;;;23.90;64.20;;;;;;5052400;28;20504;-79
2023/05/28 12:12:45;;;;;;;6.05;5.45;;;24.10;65.30;;;;;;5024234;28;20044;-79
2023/05/28 12:15:13;;;;;;;6.70;6.10;;;24.00;65.00;;;;;;5050217;28;20072;-79
2023/05/28 12:17:40;;;;;;;5.80;5.20;;;24.20;64.50;;;;;;5051555;28;20048;-79
2023/05/28 12:20:16;;;;;;;5.85;5.25;;;24.40;65.80;;;;;;5019403;28;20064;-79
2023/05/28 12:22:43;;;;;;;5.72;5.13;;;24.60;64.30;;;;;;5051707;28;20056;-80
2023/05/28 12:25:10;;;;;;;5.65;5.15;;;25.00;64.50;;;;;;5045155;28;20175;-79
2023/05/28 12:27:37;;;;;;;4.85;4.35;;;25.30;67.00;;;;;;5044045;28;20059;-79
2023/05/28 12:30:05;;;;;;;5.25;4.75;;;25.70;64.70;;;;;;5051613;28;20179;-79
2023/05/28 12:32:34;;;;;;;5.55;5.05;;;25.80;66.10;;;;;;5050020;28;20094;-79
2023/05/28 12:35:01;;;;;;;5.40;4.90;;;25.80;62.90;;;;;;5048349;28;20098;-79
2023/05/28 12:37:29;;;;;;;5.28;4.78;;;25.60;64.50;;;;;;5050133;28;20496;-79
2023/05/28 12:39:56;;;;;;;4.85;4.38;;;25.60;63.30;;;;;;5050830;28;20101;-80
2023/05/28 12:42:23;;;;;;;5.50;4.90;;;25.60;60.50;;;;;;5051609;28;20049;-79
2023/05/28 12:44:49;;;;;;;4.97;4.43;;;25.60;60.20;;;;;;5050534;28;20048;-80
2023/05/28 12:47:16;;;;;;;5.60;5.03;;;25.90;59.80;;;;;;5030986;28;20057;-79
2023/05/28 12:49:43;;;;;;;5.10;4.60;;;25.90;58.90;;;;;;5059144;28;20040;-80
2023/05/28 12:52:10;;;;;;;5.72;5.13;;;26.20;58.50;;;;;;5060521;28;20064;-79
2023/05/28 12:54:37;;;;;;;4.68;4.28;;;26.40;57.70;;;;;;5060537;28;20048;-79
2023/05/28 12:57:04;;;;;;;5.25;4.75;;;26.40;58.80;;;;;;5061036;28;20098;-79